Brigg, United Kingdom
Current Conditions -  °F | °C
As of 8:20 AM on Thursday 18 Dec 2014 (Local Time) from EGNJ Reporting Station
Light Rain Light Rain  
Wind Chill: 12°   Ceiling: 2400
Heat Index: 12°   Visibility: 3mi
Dew Point: 11°   Wind: 17mph
Humidity: 94%   Direction: 210°SSW
Pressure: 29.59"   Gusts: NA
Location:  53.55°N, 0.49°W
Report Text: EGNJ 180820Z 21015KT 5000 -RA FEW014 SCT018 BKN024 12/11 Q1002
Loading
Personal Weather Stations






























Interactive Weather Map New forecast layout! Learn more

10-Day Weather Forecast

Advertisements
Track Severe Weather on mobile